sensor_id;sensor_type;location;lat;lon;timestamp;P1;durP1;ratioP1;P2;durP2;ratioP2
48667;SDS011;34453;52.198;5.004;2022-10-31T00:00:52;7.82;;;4.20;;
48667;SDS011;34453;52.198;5.004;2022-10-31T00:03:18;8.75;;;5.25;;
48667;SDS011;34453;52.198;5.004;2022-10-31T00:05:44;5.10;;;4.07;;
48667;SDS011;34453;52.198;5.004;2022-10-31T00:08:10;6.32;;;3.85;;
48667;SDS011;34453;52.198;5.004;2022-10-31T00:10:39;9.98;;;4.30;;
48667;SDS011;34453;52.198;5.004;2022-10-31T00:13:04;7.28;;;3.88;;
48667;SDS011;34453;52.198;5.004;2022-10-31T00:15:30;6.75;;;4.32;;
48667;SDS011;34453;52.198;5.004;2022-10-31T00:17:58;5.30;;;4.70;;
48667;SDS011;34453;52.198;5.004;2022-10-31T00:20:23;6.28;;;4.15;;
48667;SDS011;34453;52.198;5.004;2022-10-31T00:22:49;4.95;;;4.20;;
48667;SDS011;34453;52.198;5.004;2022-10-31T00:25:14;5.40;;;3.88;;
48667;SDS011;34453;52.198;5.004;2022-10-31T00:27:40;9.82;;;3.75;;
48667;SDS011;34453;52.198;5.004;2022-10-31T00:30:05;4.28;;;3.85;;
48667;SDS011;34453;52.198;5.004;2022-10-31T00:32:31;4.10;;;3.72;;
48667;SDS011;34453;52.198;5.004;2022-10-31T00:34:56;4.60;;;4.20;;
48667;SDS011;34453;52.198;5.004;2022-10-31T00:37:21;7.80;;;4.35;;
48667;SDS011;34453;52.198;5.004;2022-10-31T00:39:47;5.47;;;3.95;;
48667;SDS011;34453;52.198;5.004;2022-10-31T00:42:14;6.13;;;4.43;;
48667;SDS011;34453;52.198;5.004;2022-10-31T00:44:40;7.68;;;4.90;;
48667;SDS011;34453;52.198;5.004;2022-10-31T00:47:05;5.80;;;3.90;;
48667;SDS011;34453;52.198;5.004;2022-10-31T00:49:30;4.75;;;4.35;;
48667;SDS011;34453;52.198;5.004;2022-10-31T00:51:55;5.30;;;4.85;;
48667;SDS011;34453;52.198;5.004;2022-10-31T00:54:21;4.85;;;4.45;;
48667;SDS011;34453;52.198;5.004;2022-10-31T00:56:46;7.30;;;3.90;;
48667;SDS011;34453;52.198;5.004;2022-10-31T00:59:11;5.47;;;4.72;;
48667;SDS011;34453;52.198;5.004;2022-10-31T01:01:37;10.20;;;5.32;;
48667;SDS011;34453;52.198;5.004;2022-10-31T01:04:02;7.60;;;5.10;;
48667;SDS011;34453;52.198;5.004;2022-10-31T01:06:27;6.10;;;5.50;;
48667;SDS011;34453;52.198;5.004;2022-10-31T01:08:53;9.00;;;5.20;;
48667;SDS011;34453;52.198;5.004;2022-10-31T01:11:19;18.38;;;5.53;;
48667;SDS011;34453;52.198;5.004;2022-10-31T01:13:45;8.05;;;6.00;;
48667;SDS011;34453;52.198;5.004;2022-10-31T01:16:11;6.63;;;6.13;;
48667;SDS011;34453;52.198;5.004;2022-10-31T01:18:36;14.30;;;6.93;;
48667;SDS011;34453;52.198;5.004;2022-10-31T01:21:09;14.10;;;6.90;;
48667;SDS011;34453;52.198;5.004;2022-10-31T01:23:34;8.60;;;6.70;;
48667;SDS011;34453;52.198;5.004;2022-10-31T01:26:33;8.57;;;7.38;;
48667;SDS011;34453;52.198;5.004;2022-10-31T01:28:58;7.37;;;6.63;;
48667;SDS011;34453;52.198;5.004;2022-10-31T01:33:49;7.95;;;6.60;;
48667;SDS011;34453;52.198;5.004;2022-10-31T01:36:19;6.50;;;5.95;;
48667;SDS011;34453;52.198;5.004;2022-10-31T01:38:46;15.93;;;8.43;;
48667;SDS011;34453;52.198;5.004;2022-10-31T01:41:12;7.75;;;7.05;;
48667;SDS011;34453;52.198;5.004;2022-10-31T01:43:41;8.77;;;6.72;;
48667;SDS011;34453;52.198;5.004;2022-10-31T01:46:07;7.22;;;6.55;;
48667;SDS011;34453;52.198;5.004;2022-10-31T01:48:32;7.75;;;5.95;;
48667;SDS011;34453;52.198;5.004;2022-10-31T01:50:57;7.40;;;6.55;;
48667;SDS011;34453;52.198;5.004;2022-10-31T01:53:23;7.15;;;6.47;;
48667;SDS011;34453;52.198;5.004;2022-10-31T01:55:49;8.57;;;6.95;;
48667;SDS011;34453;52.198;5.004;2022-10-31T01:58:15;6.90;;;6.25;;
48667;SDS011;34453;52.198;5.004;2022-10-31T02:00:43;11.63;;;6.00;;
48667;SDS011;34453;52.198;5.004;2022-10-31T02:03:10;9.20;;;7.25;;
48667;SDS011;34453;52.198;5.004;2022-10-31T02:05:35;7.90;;;6.78;;
48667;SDS011;34453;52.198;5.004;2022-10-31T02:08:08;10.50;;;6.70;;
48667;SDS011;34453;52.198;5.004;2022-10-31T02:10:36;9.07;;;6.82;;
48667;SDS011;34453;52.198;5.004;2022-10-31T02:13:02;10.48;;;7.00;;
48667;SDS011;34453;52.198;5.004;2022-10-31T02:15:28;12.75;;;6.88;;
48667;SDS011;34453;52.198;5.004;2022-10-31T02:17:55;8.98;;;7.45;;
48667;SDS011;34453;52.198;5.004;2022-10-31T02:20:21;8.45;;;6.72;;
48667;SDS011;34453;52.198;5.004;2022-10-31T02:36:10;8.63;;;7.82;;
48667;SDS011;34453;52.198;5.004;2022-10-31T02:41:30;17.00;;;8.25;;
48667;SDS011;34453;52.198;5.004;2022-10-31T02:44:04;11.25;;;7.63;;
48667;SDS011;34453;52.198;5.004;2022-10-31T02:46:43;11.98;;;9.10;;
48667;SDS011;34453;52.198;5.004;2022-10-31T02:49:11;10.90;;;8.13;;
48667;SDS011;34453;52.198;5.004;2022-10-31T02:51:38;11.73;;;8.63;;
48667;SDS011;34453;52.198;5.004;2022-10-31T02:54:04;18.73;;;8.32;;
48667;SDS011;34453;52.198;5.004;2022-10-31T02:56:29;10.75;;;7.47;;
48667;SDS011;34453;52.198;5.004;2022-10-31T02:58:56;10.13;;;7.90;;
48667;SDS011;34453;52.198;5.004;2022-10-31T03:01:30;11.13;;;8.75;;
48667;SDS011;34453;52.198;5.004;2022-10-31T03:06:32;9.90;;;9.02;;
48667;SDS011;34453;52.198;5.004;2022-10-31T03:09:14;9.45;;;8.07;;
48667;SDS011;34453;52.198;5.004;2022-10-31T03:12:07;8.15;;;7.45;;
48667;SDS011;34453;52.198;5.004;2022-10-31T03:14:40;8.00;;;7.20;;
48667;SDS011;34453;52.198;5.004;2022-10-31T03:17:07;8.75;;;7.35;;
48667;SDS011;34453;52.198;5.004;2022-10-31T03:19:36;9.55;;;7.05;;
48667;SDS011;34453;52.198;5.004;2022-10-31T03:22:05;9.55;;;6.95;;
48667;SDS011;34453;52.198;5.004;2022-10-31T03:24:32;9.77;;;8.27;;
48667;SDS011;34453;52.198;5.004;2022-10-31T03:27:00;9.38;;;8.38;;
48667;SDS011;34453;52.198;5.004;2022-10-31T03:29:28;9.73;;;8.73;;
48667;SDS011;34453;52.198;5.004;2022-10-31T03:31:59;15.95;;;10.13;;
48667;SDS011;34453;52.198;5.004;2022-10-31T03:34:26;13.65;;;9.95;;
48667;SDS011;34453;52.198;5.004;2022-10-31T03:36:55;14.60;;;9.40;;
48667;SDS011;34453;52.198;5.004;2022-10-31T03:39:22;11.30;;;10.15;;
48667;SDS011;34453;52.198;5.004;2022-10-31T03:41:59;13.88;;;10.77;;
48667;SDS011;34453;52.198;5.004;2022-10-31T03:44:27;16.58;;;11.88;;
48667;SDS011;34453;52.198;5.004;2022-10-31T03:46:54;14.18;;;11.02;;
48667;SDS011;34453;52.198;5.004;2022-10-31T03:49:20;20.17;;;12.10;;
48667;SDS011;34453;52.198;5.004;2022-10-31T03:51:47;16.50;;;11.70;;
48667;SDS011;34453;52.198;5.004;2022-10-31T03:57:29;11.30;;;10.13;;
48667;SDS011;34453;52.198;5.004;2022-10-31T03:59:39;17.73;;;11.55;;
48667;SDS011;34453;52.198;5.004;2022-10-31T04:02:06;21.42;;;11.77;;
48667;SDS011;34453;52.198;5.004;2022-10-31T04:04:33;13.05;;;11.68;;
48667;SDS011;34453;52.198;5.004;2022-10-31T04:06:59;13.75;;;10.38;;
48667;SDS011;34453;52.198;5.004;2022-10-31T04:09:26;13.07;;;11.77;;
48667;SDS011;34453;52.198;5.004;2022-10-31T04:11:53;15.77;;;11.82;;
48667;SDS011;34453;52.198;5.004;2022-10-31T04:14:19;17.00;;;11.20;;
48667;SDS011;34453;52.198;5.004;2022-10-31T04:16:45;14.98;;;11.95;;
48667;SDS011;34453;52.198;5.004;2022-10-31T04:19:11;16.65;;;12.48;;
48667;SDS011;34453;52.198;5.004;2022-10-31T04:21:36;14.93;;;11.77;;
48667;SDS011;34453;52.198;5.004;2022-10-31T04:24:02;13.02;;;11.05;;
48667;SDS011;34453;52.198;5.004;2022-10-31T04:26:27;11.27;;;9.98;;
48667;SDS011;34453;52.198;5.004;2022-10-31T04:28:53;16.42;;;10.20;;
48667;SDS011;34453;52.198;5.004;2022-10-31T04:31:18;16.60;;;10.88;;
48667;SDS011;34453;52.198;5.004;2022-10-31T04:33:43;13.70;;;10.13;;
48667;SDS011;34453;52.198;5.004;2022-10-31T04:36:09;17.90;;;12.13;;
48667;SDS011;34453;52.198;5.004;2022-10-31T04:38:34;16.08;;;12.65;;
48667;SDS011;34453;52.198;5.004;2022-10-31T04:41:00;12.48;;;10.75;;
48667;SDS011;34453;52.198;5.004;2022-10-31T04:43:25;12.23;;;9.77;;
48667;SDS011;34453;52.198;5.004;2022-10-31T04:45:50;15.70;;;10.77;;
48667;SDS011;34453;52.198;5.004;2022-10-31T04:48:16;11.68;;;10.45;;
48667;SDS011;34453;52.198;5.004;2022-10-31T04:50:41;12.43;;;9.90;;
48667;SDS011;34453;52.198;5.004;2022-10-31T04:53:07;14.95;;;10.85;;
48667;SDS011;34453;52.198;5.004;2022-10-31T04:55:32;17.30;;;10.85;;
48667;SDS011;34453;52.198;5.004;2022-10-31T04:57:58;11.45;;;9.85;;
48667;SDS011;34453;52.198;5.004;2022-10-31T05:00:23;11.15;;;7.85;;
48667;SDS011;34453;52.198;5.004;2022-10-31T05:02:52;8.18;;;6.97;;
48667;SDS011;34453;52.198;5.004;2022-10-31T05:05:18;12.75;;;6.35;;
48667;SDS011;34453;52.198;5.004;2022-10-31T05:07:44;9.23;;;8.18;;
48667;SDS011;34453;52.198;5.004;2022-10-31T05:10:13;8.60;;;7.57;;
48667;SDS011;34453;52.198;5.004;2022-10-31T05:12:49;10.52;;;9.13;;
48667;SDS011;34453;52.198;5.004;2022-10-31T05:15:15;12.57;;;10.30;;
48667;SDS011;34453;52.198;5.004;2022-10-31T05:17:40;15.65;;;11.20;;
48667;SDS011;34453;52.198;5.004;2022-10-31T05:20:06;15.07;;;11.73;;
48667;SDS011;34453;52.198;5.004;2022-10-31T05:22:31;17.70;;;12.13;;
48667;SDS011;34453;52.198;5.004;2022-10-31T05:24:57;14.10;;;11.35;;
48667;SDS011;34453;52.198;5.004;2022-10-31T05:27:22;13.15;;;11.85;;
48667;SDS011;34453;52.198;5.004;2022-10-31T05:29:48;21.33;;;12.40;;
48667;SDS011;34453;52.198;5.004;2022-10-31T05:32:13;14.55;;;12.68;;
48667;SDS011;34453;52.198;5.004;2022-10-31T05:34:39;16.10;;;12.48;;
48667;SDS011;34453;52.198;5.004;2022-10-31T05:37:04;15.00;;;11.52;;
48667;SDS011;34453;52.198;5.004;2022-10-31T05:39:29;19.17;;;11.77;;
48667;SDS011;34453;52.198;5.004;2022-10-31T05:41:57;13.35;;;11.90;;
48667;SDS011;34453;52.198;5.004;2022-10-31T05:44:23;14.18;;;11.10;;
48667;SDS011;34453;52.198;5.004;2022-10-31T05:46:48;14.45;;;11.20;;
48667;SDS011;34453;52.198;5.004;2022-10-31T05:49:13;16.80;;;11.32;;
48667;SDS011;34453;52.198;5.004;2022-10-31T05:51:39;10.07;;;8.52;;
48667;SDS011;34453;52.198;5.004;2022-10-31T05:54:04;11.90;;;9.77;;
48667;SDS011;34453;52.198;5.004;2022-10-31T05:56:29;10.32;;;9.35;;
48667;SDS011;34453;52.198;5.004;2022-10-31T05:58:55;13.73;;;10.18;;
48667;SDS011;34453;52.198;5.004;2022-10-31T06:01:20;14.27;;;12.07;;
48667;SDS011;34453;52.198;5.004;2022-10-31T06:03:45;14.35;;;11.57;;
48667;SDS011;34453;52.198;5.004;2022-10-31T06:06:11;14.68;;;11.80;;
48667;SDS011;34453;52.198;5.004;2022-10-31T06:08:36;15.15;;;12.25;;
48667;SDS011;34453;52.198;5.004;2022-10-31T06:11:02;16.80;;;12.35;;
48667;SDS011;34453;52.198;5.004;2022-10-31T06:13:27;20.35;;;12.90;;
48667;SDS011;34453;52.198;5.004;2022-10-31T06:15:52;17.30;;;13.68;;
48667;SDS011;34453;52.198;5.004;2022-10-31T06:18:18;16.92;;;13.32;;
48667;SDS011;34453;52.198;5.004;2022-10-31T06:20:43;16.15;;;13.02;;
48667;SDS011;34453;52.198;5.004;2022-10-31T06:23:08;19.42;;;12.82;;
48667;SDS011;34453;52.198;5.004;2022-10-31T06:25:34;17.10;;;13.18;;
48667;SDS011;34453;52.198;5.004;2022-10-31T06:28:00;12.63;;;11.32;;
48667;SDS011;34453;52.198;5.004;2022-10-31T06:30:25;17.00;;;12.02;;
48667;SDS011;34453;52.198;5.004;2022-10-31T06:32:50;17.45;;;11.18;;
48667;SDS011;34453;52.198;5.004;2022-10-31T06:35:16;12.30;;;10.23;;
48667;SDS011;34453;52.198;5.004;2022-10-31T06:37:41;12.68;;;10.85;;
48667;SDS011;34453;52.198;5.004;2022-10-31T06:40:07;13.40;;;10.93;;
48667;SDS011;34453;52.198;5.004;2022-10-31T06:42:32;10.50;;;9.50;;
48667;SDS011;34453;52.198;5.004;2022-10-31T06:44:58;15.98;;;11.15;;
48667;SDS011;34453;52.198;5.004;2022-10-31T06:47:23;14.25;;;12.75;;
48667;SDS011;34453;52.198;5.004;2022-10-31T06:49:48;19.33;;;12.52;;
48667;SDS011;34453;52.198;5.004;2022-10-31T06:52:14;21.05;;;13.68;;
48667;SDS011;34453;52.198;5.004;2022-10-31T06:54:39;17.90;;;14.57;;
48667;SDS011;34453;52.198;5.004;2022-10-31T06:57:04;18.77;;;14.07;;
48667;SDS011;34453;52.198;5.004;2022-10-31T06:59:30;18.00;;;13.38;;
48667;SDS011;34453;52.198;5.004;2022-10-31T07:01:57;18.73;;;14.40;;
48667;SDS011;34453;52.198;5.004;2022-10-31T07:04:22;16.80;;;13.43;;
48667;SDS011;34453;52.198;5.004;2022-10-31T07:06:49;17.50;;;15.20;;
48667;SDS011;34453;52.198;5.004;2022-10-31T07:09:15;24.65;;;15.80;;
48667;SDS011;34453;52.198;5.004;2022-10-31T07:11:40;22.75;;;15.70;;
48667;SDS011;34453;52.198;5.004;2022-10-31T07:14:06;17.35;;;12.98;;
48667;SDS011;34453;52.198;5.004;2022-10-31T07:16:31;21.83;;;15.27;;
48667;SDS011;34453;52.198;5.004;2022-10-31T07:18:56;16.02;;;13.60;;
48667;SDS011;34453;52.198;5.004;2022-10-31T07:21:22;18.70;;;15.30;;
48667;SDS011;34453;52.198;5.004;2022-10-31T07:23:48;19.50;;;14.40;;
48667;SDS011;34453;52.198;5.004;2022-10-31T07:26:13;19.63;;;13.68;;
48667;SDS011;34453;52.198;5.004;2022-10-31T07:28:39;19.55;;;15.73;;
48667;SDS011;34453;52.198;5.004;2022-10-31T07:31:05;24.30;;;17.05;;
48667;SDS011;34453;52.198;5.004;2022-10-31T07:33:30;25.52;;;16.83;;
48667;SDS011;34453;52.198;5.004;2022-10-31T07:35:55;23.98;;;16.10;;
48667;SDS011;34453;52.198;5.004;2022-10-31T07:38:20;21.75;;;16.35;;
48667;SDS011;34453;52.198;5.004;2022-10-31T07:40:49;21.27;;;15.85;;
48667;SDS011;34453;52.198;5.004;2022-10-31T07:43:14;26.05;;;18.63;;
48667;SDS011;34453;52.198;5.004;2022-10-31T07:45:40;24.00;;;17.65;;
48667;SDS011;34453;52.198;5.004;2022-10-31T07:48:05;31.27;;;19.38;;
48667;SDS011;34453;52.198;5.004;2022-10-31T07:50:31;33.92;;;20.25;;
48667;SDS011;34453;52.198;5.004;2022-10-31T07:55:24;37.95;;;19.50;;
48667;SDS011;34453;52.198;5.004;2022-10-31T07:58:23;29.98;;;18.90;;
48667;SDS011;34453;52.198;5.004;2022-10-31T08:00:43;36.13;;;19.88;;
48667;SDS011;34453;52.198;5.004;2022-10-31T08:03:09;41.67;;;20.40;;
48667;SDS011;34453;52.198;5.004;2022-10-31T08:05:35;31.10;;;19.90;;
48667;SDS011;34453;52.198;5.004;2022-10-31T08:08:01;40.25;;;21.38;;
48667;SDS011;34453;52.198;5.004;2022-10-31T08:10:26;32.00;;;21.15;;
48667;SDS011;34453;52.198;5.004;2022-10-31T08:13:05;31.08;;;21.50;;
48667;SDS011;34453;52.198;5.004;2022-10-31T08:15:31;30.50;;;20.83;;
48667;SDS011;34453;52.198;5.004;2022-10-31T08:17:57;42.45;;;20.98;;
48667;SDS011;34453;52.198;5.004;2022-10-31T08:20:22;41.38;;;20.85;;
48667;SDS011;34453;52.198;5.004;2022-10-31T08:22:53;39.72;;;20.23;;
48667;SDS011;34453;52.198;5.004;2022-10-31T08:25:18;34.00;;;19.55;;
48667;SDS011;34453;52.198;5.004;2022-10-31T08:27:48;37.38;;;19.70;;
48667;SDS011;34453;52.198;5.004;2022-10-31T08:30:13;28.58;;;19.73;;
48667;SDS011;34453;52.198;5.004;2022-10-31T08:32:38;27.42;;;19.38;;
48667;SDS011;34453;52.198;5.004;2022-10-31T08:35:04;30.58;;;21.15;;
48667;SDS011;34453;52.198;5.004;2022-10-31T08:37:29;30.10;;;21.10;;
48667;SDS011;34453;52.198;5.004;2022-10-31T08:39:54;35.88;;;22.83;;
48667;SDS011;34453;52.198;5.004;2022-10-31T08:42:20;34.63;;;21.38;;
48667;SDS011;34453;52.198;5.004;2022-10-31T08:44:45;32.38;;;22.13;;
48667;SDS011;34453;52.198;5.004;2022-10-31T08:47:11;31.40;;;20.10;;
48667;SDS011;34453;52.198;5.004;2022-10-31T08:49:36;25.92;;;19.38;;
48667;SDS011;34453;52.198;5.004;2022-10-31T08:52:01;27.42;;;18.65;;
48667;SDS011;34453;52.198;5.004;2022-10-31T08:54:26;31.35;;;20.55;;
48667;SDS011;34453;52.198;5.004;2022-10-31T08:56:55;27.63;;;18.52;;
48667;SDS011;34453;52.198;5.004;2022-10-31T08:59:20;28.58;;;17.70;;
48667;SDS011;34453;52.198;5.004;2022-10-31T09:01:46;20.00;;;17.67;;
48667;SDS011;34453;52.198;5.004;2022-10-31T09:04:11;23.05;;;18.08;;
48667;SDS011;34453;52.198;5.004;2022-10-31T09:06:36;25.58;;;19.17;;
48667;SDS011;34453;52.198;5.004;2022-10-31T09:09:02;23.67;;;17.30;;
48667;SDS011;34453;52.198;5.004;2022-10-31T09:11:29;21.83;;;17.25;;
48667;SDS011;34453;52.198;5.004;2022-10-31T09:13:55;26.30;;;18.48;;
48667;SDS011;34453;52.198;5.004;2022-10-31T09:16:21;20.80;;;16.60;;
48667;SDS011;34453;52.198;5.004;2022-10-31T09:18:46;21.27;;;15.27;;
48667;SDS011;34453;52.198;5.004;2022-10-31T09:21:11;22.75;;;16.33;;
48667;SDS011;34453;52.198;5.004;2022-10-31T09:23:37;22.63;;;15.13;;
48667;SDS011;34453;52.198;5.004;2022-10-31T09:26:02;21.23;;;15.15;;
48667;SDS011;34453;52.198;5.004;2022-10-31T09:28:28;19.30;;;15.18;;
48667;SDS011;34453;52.198;5.004;2022-10-31T09:30:54;19.13;;;14.95;;
48667;SDS011;34453;52.198;5.004;2022-10-31T09:33:19;23.70;;;15.75;;
48667;SDS011;34453;52.198;5.004;2022-10-31T09:35:45;24.70;;;16.75;;
48667;SDS011;34453;52.198;5.004;2022-10-31T09:51:37;22.00;;;17.83;;
48667;SDS011;34453;52.198;5.004;2022-10-31T09:56:30;21.30;;;15.57;;
48667;SDS011;34453;52.198;5.004;2022-10-31T09:58:57;25.13;;;16.20;;
48667;SDS011;34453;52.198;5.004;2022-10-31T10:01:28;19.90;;;14.57;;
48667;SDS011;34453;52.198;5.004;2022-10-31T10:03:57;22.42;;;17.35;;
48667;SDS011;34453;52.198;5.004;2022-10-31T10:06:23;31.88;;;20.67;;
48667;SDS011;34453;52.198;5.004;2022-10-31T10:08:49;38.80;;;21.92;;
48667;SDS011;34453;52.198;5.004;2022-10-31T10:16:24;39.10;;;30.58;;
48667;SDS011;34453;52.198;5.004;2022-10-31T10:19:05;34.65;;;22.35;;
48667;SDS011;34453;52.198;5.004;2022-10-31T10:21:34;25.90;;;18.70;;
48667;SDS011;34453;52.198;5.004;2022-10-31T10:26:52;20.33;;;17.25;;
48667;SDS011;34453;52.198;5.004;2022-10-31T10:29:29;28.00;;;19.63;;
48667;SDS011;34453;52.198;5.004;2022-10-31T10:31:55;23.27;;;16.02;;
48667;SDS011;34453;52.198;5.004;2022-10-31T10:34:25;25.15;;;17.75;;
48667;SDS011;34453;52.198;5.004;2022-10-31T10:36:56;23.95;;;16.40;;
48667;SDS011;34453;52.198;5.004;2022-10-31T10:39:23;23.67;;;15.75;;
48667;SDS011;34453;52.198;5.004;2022-10-31T10:41:50;25.63;;;15.25;;
48667;SDS011;34453;52.198;5.004;2022-10-31T10:44:38;20.30;;;15.70;;
48667;SDS011;34453;52.198;5.004;2022-10-31T10:47:23;18.77;;;14.73;;
48667;SDS011;34453;52.198;5.004;2022-10-31T10:50:03;27.52;;;17.38;;
48667;SDS011;34453;52.198;5.004;2022-10-31T10:52:35;25.05;;;18.30;;
48667;SDS011;34453;52.198;5.004;2022-10-31T10:57:49;18.77;;;15.13;;
48667;SDS011;34453;52.198;5.004;2022-10-31T11:00:23;23.77;;;15.10;;
48667;SDS011;34453;52.198;5.004;2022-10-31T11:02:48;17.70;;;12.43;;
48667;SDS011;34453;52.198;5.004;2022-10-31T11:05:33;19.35;;;12.02;;
48667;SDS011;34453;52.198;5.004;2022-10-31T11:08:00;17.67;;;12.00;;
48667;SDS011;34453;52.198;5.004;2022-10-31T11:10:27;15.38;;;12.52;;
48667;SDS011;34453;52.198;5.004;2022-10-31T11:15:38;19.08;;;12.40;;
48667;SDS011;34453;52.198;5.004;2022-10-31T11:18:04;19.30;;;11.93;;
48667;SDS011;34453;52.198;5.004;2022-10-31T11:20:31;12.48;;;11.13;;
48667;SDS011;34453;52.198;5.004;2022-10-31T11:23:03;18.48;;;11.38;;
48667;SDS011;34453;52.198;5.004;2022-10-31T11:25:29;15.23;;;11.00;;
48667;SDS011;34453;52.198;5.004;2022-10-31T11:28:05;12.50;;;11.00;;
48667;SDS011;34453;52.198;5.004;2022-10-31T11:33:11;17.00;;;13.65;;
48667;SDS011;34453;52.198;5.004;2022-10-31T11:35:41;13.02;;;11.23;;
48667;SDS011;34453;52.198;5.004;2022-10-31T11:38:06;12.85;;;10.98;;
48667;SDS011;34453;52.198;5.004;2022-10-31T11:40:31;14.88;;;11.25;;
48667;SDS011;34453;52.198;5.004;2022-10-31T11:42:57;12.80;;;11.30;;
48667;SDS011;34453;52.198;5.004;2022-10-31T11:47:52;16.95;;;12.63;;
48667;SDS011;34453;52.198;5.004;2022-10-31T11:50:21;19.23;;;12.02;;
48667;SDS011;34453;52.198;5.004;2022-10-31T11:52:47;18.80;;;12.50;;
48667;SDS011;34453;52.198;5.004;2022-10-31T11:55:14;21.58;;;13.13;;
48667;SDS011;34453;52.198;5.004;2022-10-31T11:57:44;23.00;;;14.48;;
48667;SDS011;34453;52.198;5.004;2022-10-31T12:03:03;18.13;;;13.63;;
48667;SDS011;34453;52.198;5.004;2022-10-31T12:05:29;22.27;;;15.95;;
48667;SDS011;34453;52.198;5.004;2022-10-31T12:07:58;24.08;;;16.30;;
48667;SDS011;34453;52.198;5.004;2022-10-31T12:10:24;23.30;;;15.82;;
48667;SDS011;34453;52.198;5.004;2022-10-31T12:12:54;25.38;;;15.98;;
48667;SDS011;34453;52.198;5.004;2022-10-31T12:20:41;30.98;;;17.80;;
48667;SDS011;34453;52.198;5.004;2022-10-31T12:23:13;33.45;;;19.65;;
48667;SDS011;34453;52.198;5.004;2022-10-31T12:25:47;35.25;;;20.83;;
48667;SDS011;34453;52.198;5.004;2022-10-31T12:36:53;32.85;;;21.02;;
48667;SDS011;34453;52.198;5.004;2022-10-31T12:46:51;29.05;;;21.08;;
48667;SDS011;34453;52.198;5.004;2022-10-31T12:52:12;31.88;;;21.88;;
48667;SDS011;34453;52.198;5.004;2022-10-31T13:00:03;37.35;;;21.58;;
48667;SDS011;34453;52.198;5.004;2022-10-31T13:05:00;33.28;;;21.33;;
48667;SDS011;34453;52.198;5.004;2022-10-31T13:10:08;36.10;;;20.58;;
48667;SDS011;34453;52.198;5.004;2022-10-31T13:12:39;30.05;;;19.27;;
48667;SDS011;34453;52.198;5.004;2022-10-31T13:15:19;30.35;;;20.23;;
48667;SDS011;34453;52.198;5.004;2022-10-31T13:17:49;27.08;;;19.02;;
48667;SDS011;34453;52.198;5.004;2022-10-31T13:22:42;29.08;;;18.75;;
48667;SDS011;34453;52.198;5.004;2022-10-31T13:27:57;29.40;;;18.38;;
48667;SDS011;34453;52.198;5.004;2022-10-31T13:30:20;29.67;;;18.20;;
48667;SDS011;34453;52.198;5.004;2022-10-31T13:32:50;28.27;;;19.85;;
48667;SDS011;34453;52.198;5.004;2022-10-31T13:35:27;36.22;;;19.92;;
48667;SDS011;34453;52.198;5.004;2022-10-31T13:43:22;37.38;;;21.80;;
48667;SDS011;34453;52.198;5.004;2022-10-31T13:45:53;42.20;;;23.58;;
48667;SDS011;34453;52.198;5.004;2022-10-31T13:48:39;39.30;;;22.27;;
48667;SDS011;34453;52.198;5.004;2022-10-31T13:51:07;43.92;;;23.25;;
48667;SDS011;34453;52.198;5.004;2022-10-31T13:53:37;35.03;;;21.85;;
48667;SDS011;34453;52.198;5.004;2022-10-31T13:58:34;36.15;;;22.70;;
48667;SDS011;34453;52.198;5.004;2022-10-31T14:01:15;45.05;;;23.95;;
48667;SDS011;34453;52.198;5.004;2022-10-31T14:03:41;35.03;;;21.52;;
48667;SDS011;34453;52.198;5.004;2022-10-31T14:06:08;38.85;;;23.20;;
48667;SDS011;34453;52.198;5.004;2022-10-31T14:08:34;49.78;;;23.77;;
48667;SDS011;34453;52.198;5.004;2022-10-31T14:11:01;40.90;;;23.00;;
48667;SDS011;34453;52.198;5.004;2022-10-31T14:13:31;48.92;;;23.05;;
48667;SDS011;34453;52.198;5.004;2022-10-31T14:16:01;37.70;;;22.58;;
48667;SDS011;34453;52.198;5.004;2022-10-31T14:18:31;46.78;;;22.75;;
48667;SDS011;34453;52.198;5.004;2022-10-31T14:20:58;36.65;;;22.38;;
48667;SDS011;34453;52.198;5.004;2022-10-31T14:28:34;37.35;;;22.33;;
48667;SDS011;34453;52.198;5.004;2022-10-31T14:31:00;39.55;;;23.23;;
48667;SDS011;34453;52.198;5.004;2022-10-31T14:33:26;35.30;;;23.08;;
48667;SDS011;34453;52.198;5.004;2022-10-31T14:38:33;36.47;;;23.27;;
48667;SDS011;34453;52.198;5.004;2022-10-31T14:52:00;39.30;;;20.98;;
48667;SDS011;34453;52.198;5.004;2022-10-31T14:54:34;33.50;;;21.45;;
48667;SDS011;34453;52.198;5.004;2022-10-31T14:57:02;35.58;;;21.10;;
48667;SDS011;34453;52.198;5.004;2022-10-31T14:59:30;38.90;;;22.23;;
48667;SDS011;34453;52.198;5.004;2022-10-31T15:01:57;37.53;;;21.13;;
48667;SDS011;34453;52.198;5.004;2022-10-31T15:04:25;34.88;;;20.73;;
48667;SDS011;34453;52.198;5.004;2022-10-31T15:07:14;34.70;;;20.88;;
48667;SDS011;34453;52.198;5.004;2022-10-31T15:09:39;39.55;;;20.20;;
48667;SDS011;34453;52.198;5.004;2022-10-31T15:15:11;36.35;;;22.85;;
48667;SDS011;34453;52.198;5.004;2022-10-31T15:17:41;39.60;;;21.48;;
48667;SDS011;34453;52.198;5.004;2022-10-31T15:20:07;38.15;;;20.98;;
48667;SDS011;34453;52.198;5.004;2022-10-31T15:22:32;43.13;;;21.23;;
48667;SDS011;34453;52.198;5.004;2022-10-31T15:24:58;45.42;;;22.27;;
48667;SDS011;34453;52.198;5.004;2022-10-31T15:27:24;43.63;;;23.38;;
48667;SDS011;34453;52.198;5.004;2022-10-31T15:29:53;38.05;;;24.58;;
48667;SDS011;34453;52.198;5.004;2022-10-31T15:32:20;32.05;;;19.67;;
48667;SDS011;34453;52.198;5.004;2022-10-31T15:34:47;38.50;;;20.83;;
48667;SDS011;34453;52.198;5.004;2022-10-31T15:37:13;42.28;;;22.90;;
48667;SDS011;34453;52.198;5.004;2022-10-31T15:39:40;42.15;;;21.92;;
48667;SDS011;34453;52.198;5.004;2022-10-31T15:42:13;43.25;;;21.23;;
48667;SDS011;34453;52.198;5.004;2022-10-31T15:44:40;37.47;;;20.30;;
48667;SDS011;34453;52.198;5.004;2022-10-31T15:47:12;41.22;;;20.17;;
48667;SDS011;34453;52.198;5.004;2022-10-31T15:49:41;35.38;;;21.45;;
48667;SDS011;34453;52.198;5.004;2022-10-31T15:54:54;39.90;;;22.33;;
48667;SDS011;34453;52.198;5.004;2022-10-31T15:57:21;29.23;;;19.65;;
48667;SDS011;34453;52.198;5.004;2022-10-31T15:59:48;40.38;;;19.90;;
48667;SDS011;34453;52.198;5.004;2022-10-31T16:02:14;43.72;;;22.85;;
48667;SDS011;34453;52.198;5.004;2022-10-31T16:05:01;41.97;;;21.27;;
48667;SDS011;34453;52.198;5.004;2022-10-31T16:07:27;39.38;;;21.83;;
48667;SDS011;34453;52.198;5.004;2022-10-31T16:10:21;40.53;;;21.55;;
48667;SDS011;34453;52.198;5.004;2022-10-31T16:12:47;45.38;;;22.08;;
48667;SDS011;34453;52.198;5.004;2022-10-31T16:15:15;35.35;;;21.67;;
48667;SDS011;34453;52.198;5.004;2022-10-31T16:17:45;45.00;;;22.08;;
48667;SDS011;34453;52.198;5.004;2022-10-31T16:20:24;37.97;;;21.58;;
48667;SDS011;34453;52.198;5.004;2022-10-31T16:22:50;46.25;;;22.60;;
48667;SDS011;34453;52.198;5.004;2022-10-31T16:25:19;37.08;;;21.10;;
48667;SDS011;34453;52.198;5.004;2022-10-31T16:27:47;42.80;;;21.17;;
48667;SDS011;34453;52.198;5.004;2022-10-31T16:33:21;38.85;;;21.00;;
48667;SDS011;34453;52.198;5.004;2022-10-31T16:35:48;42.40;;;20.88;;
48667;SDS011;34453;52.198;5.004;2022-10-31T16:38:13;40.95;;;22.38;;
48667;SDS011;34453;52.198;5.004;2022-10-31T16:40:39;43.05;;;23.15;;
48667;SDS011;34453;52.198;5.004;2022-10-31T16:43:08;39.15;;;22.02;;
48667;SDS011;34453;52.198;5.004;2022-10-31T16:45:35;40.35;;;21.92;;
48667;SDS011;34453;52.198;5.004;2022-10-31T16:48:05;37.50;;;22.45;;
48667;SDS011;34453;52.198;5.004;2022-10-31T16:50:31;33.92;;;20.38;;